createdAt,value
2023-01-06T00:01:25.900Z,91.65
2023-01-06T00:03:54.363Z,91.52
2023-01-06T00:06:27.606Z,91.72
2023-01-06T00:09:03.656Z,91.90
2023-01-06T00:11:30.961Z,91.65
2023-01-06T00:13:57.623Z,91.55
2023-01-06T00:16:24.468Z,91.69
2023-01-06T00:18:54.712Z,92.27
2023-01-06T00:21:21.051Z,92.40
2023-01-06T00:23:47.474Z,91.61
2023-01-06T00:26:14.213Z,91.78
2023-01-06T00:28:40.758Z,91.82
2023-01-06T00:31:15.306Z,92.17
2023-01-06T00:33:42.937Z,92.04
2023-01-06T00:36:11.386Z,91.73
2023-01-06T00:38:38.649Z,91.88
2023-01-06T00:41:26.966Z,92.03
2023-01-06T00:43:53.486Z,91.77
2023-01-06T00:46:20.486Z,92.23
2023-01-06T00:49:03.669Z,92.13
2023-01-06T00:51:31.633Z,92.10
2023-01-06T00:53:59.879Z,92.11
2023-01-06T00:56:26.285Z,92.05
2023-01-06T00:58:52.781Z,92.16
2023-01-06T01:01:19.250Z,92.20
2023-01-06T01:03:46.034Z,92.23
2023-01-06T01:06:12.485Z,91.91
2023-01-06T01:08:38.971Z,91.97
2023-01-06T01:11:08.187Z,92.09
2023-01-06T01:13:34.867Z,92.05
2023-01-06T01:16:08.527Z,92.71
2023-01-06T01:18:36.036Z,92.23
2023-01-06T01:21:03.285Z,92.31
2023-01-06T01:23:30.064Z,92.33
2023-01-06T01:25:59.890Z,92.73
2023-01-06T01:28:26.384Z,92.26
2023-01-06T01:31:00.027Z,92.94
2023-01-06T01:33:28.388Z,92.58
2023-01-06T01:35:54.783Z,92.60
2023-01-06T01:38:21.286Z,92.68
2023-01-06T01:40:50.818Z,93.08
2023-01-06T01:43:17.806Z,92.52
2023-01-06T01:45:50.286Z,92.81
2023-01-06T01:48:35.099Z,93.92
2023-01-06T01:51:06.223Z,92.66
2023-01-06T01:53:38.892Z,92.85
2023-01-06T01:56:09.363Z,92.68
2023-01-06T01:58:42.324Z,93.02
2023-01-06T02:01:10.873Z,92.72
2023-01-06T02:03:40.792Z,92.86
2023-01-06T02:06:14.264Z,93.08
2023-01-06T02:08:55.138Z,93.94
2023-01-06T02:11:23.596Z,92.73
2023-01-06T02:13:57.072Z,92.86
2023-01-06T02:16:23.444Z,93.05
2023-01-06T02:19:02.256Z,93.80
2023-01-06T02:21:41.710Z,93.52
2023-01-06T02:24:44.534Z,94.85
2023-01-06T02:27:49.763Z,95.24
2023-01-06T02:30:30.057Z,93.60
2023-01-06T02:33:15.060Z,94.41
2023-01-06T02:36:20.051Z,94.55
2023-01-06T02:39:12.874Z,94.51
2023-01-06T02:41:57.863Z,95.51
2023-01-06T02:44:30.199Z,94.29
2023-01-06T02:47:15.027Z,95.02
2023-01-06T02:49:44.188Z,94.53
2023-01-06T02:52:19.226Z,94.65
2023-01-06T02:54:48.447Z,94.45
2023-01-06T02:57:25.690Z,94.91
2023-01-06T03:00:18.303Z,94.89
2023-01-06T03:02:53.148Z,94.71
2023-01-06T03:05:21.798Z,94.70
2023-01-06T03:07:49.258Z,94.78
2023-01-06T03:10:20.077Z,95.22
2023-01-06T03:13:09.306Z,96.35
2023-01-06T03:15:36.328Z,95.11
2023-01-06T03:18:03.315Z,95.38
2023-01-06T03:20:29.981Z,95.34
2023-01-06T03:22:56.527Z,95.50
2023-01-06T03:25:23.281Z,95.64
2023-01-06T03:27:50.053Z,95.91
2023-01-06T03:30:17.410Z,96.27
2023-01-06T03:32:53.747Z,96.01
2023-01-06T03:35:51.147Z,97.38
2023-01-06T03:38:47.200Z,97.45
2023-01-06T03:41:54.875Z,96.83
2023-01-06T03:44:42.789Z,97.43
2023-01-06T03:47:21.892Z,97.28
2023-01-06T03:49:59.120Z,97.96
2023-01-06T03:52:31.441Z,98.20
2023-01-06T03:55:10.055Z,98.12
2023-01-06T03:57:39.889Z,98.67
2023-01-06T04:00:12.639Z,98.82
2023-01-06T04:02:40.867Z,98.78
2023-01-06T04:05:12.803Z,99.11
2023-01-06T04:07:40.749Z,98.91
2023-01-06T04:10:08.317Z,98.83
2023-01-06T04:12:40.687Z,98.84
2023-01-06T04:15:20.404Z,99.86
2023-01-06T04:17:47.769Z,98.92
2023-01-06T04:20:26.012Z,99.10
2023-01-06T04:22:57.284Z,99.18
2023-01-06T04:25:24.477Z,98.65
2023-01-06T04:27:51.227Z,98.42
2023-01-06T04:30:18.088Z,98.39
2023-01-06T04:32:47.199Z,98.54
2023-01-06T04:35:13.663Z,98.75
2023-01-06T04:37:40.075Z,98.62
2023-01-06T04:40:07.802Z,98.67
2023-01-06T04:42:54.493Z,98.70
2023-01-06T04:45:21.526Z,98.37
2023-01-06T04:47:47.985Z,98.59
2023-01-06T04:50:14.998Z,98.81
2023-01-06T04:52:41.546Z,98.71
2023-01-06T04:55:08.858Z,98.86
2023-01-06T04:57:35.486Z,98.74
2023-01-06T05:00:02.063Z,98.62
2023-01-06T05:02:28.803Z,98.53
2023-01-06T05:04:55.198Z,98.79
2023-01-06T05:07:21.617Z,98.94
2023-01-06T05:09:48.098Z,98.75
2023-01-06T05:12:14.499Z,98.76
2023-01-06T05:14:40.935Z,98.51
2023-01-06T05:17:07.410Z,98.35
2023-01-06T05:19:33.803Z,98.51
2023-01-06T05:22:00.277Z,98.71
2023-01-06T05:24:26.655Z,98.49
2023-01-06T05:26:54.848Z,98.42
2023-01-06T05:29:21.297Z,98.65
2023-01-06T05:31:47.707Z,98.59
2023-01-06T05:34:14.323Z,98.46
2023-01-06T05:36:40.729Z,98.50
2023-01-06T05:39:07.146Z,98.28
2023-01-06T05:41:33.531Z,98.16
2023-01-06T05:44:00.011Z,98.15
2023-01-06T05:46:26.399Z,98.00
2023-01-06T05:48:52.890Z,98.08
2023-01-06T05:51:19.396Z,97.84
2023-01-06T05:53:48.831Z,98.04
2023-01-06T05:56:17.970Z,98.33
2023-01-06T05:58:46.477Z,97.89
2023-01-06T06:01:22.221Z,98.01
2023-01-06T06:03:49.594Z,97.79
2023-01-06T06:06:17.449Z,98.08
2023-01-06T06:08:43.918Z,98.21
2023-01-06T06:11:12.644Z,97.97
2023-01-06T06:13:45.016Z,97.94
2023-01-06T06:16:13.634Z,98.45
2023-01-06T06:18:44.327Z,98.23
2023-01-06T06:21:12.944Z,97.97
2023-01-06T06:23:39.709Z,98.14
2023-01-06T06:26:07.381Z,98.00
2023-01-06T06:28:35.035Z,98.13
2023-01-06T06:31:10.980Z,98.26
2023-01-06T06:33:37.491Z,97.79
2023-01-06T06:36:05.630Z,97.91
2023-01-06T06:38:32.097Z,97.69
2023-01-06T06:40:58.538Z,97.69
2023-01-06T06:43:24.938Z,97.66
2023-01-06T06:45:51.353Z,97.52
2023-01-06T06:48:17.784Z,97.59
2023-01-06T06:50:44.223Z,97.71
2023-01-06T06:53:10.618Z,97.75
2023-01-06T06:55:37.064Z,97.69
2023-01-06T06:58:03.551Z,97.40
2023-01-06T07:00:30.161Z,97.50
2023-01-06T07:02:56.590Z,97.19
2023-01-06T07:05:25.508Z,97.29
2023-01-06T07:07:52.104Z,97.28
2023-01-06T07:10:19.173Z,97.08
2023-01-06T07:12:45.979Z,96.99
2023-01-06T07:15:12.423Z,96.84
2023-01-06T07:17:39.639Z,96.79
2023-01-06T07:20:06.339Z,97.09
2023-01-06T07:22:32.783Z,96.97
2023-01-06T07:24:59.240Z,97.01
2023-01-06T07:27:25.626Z,96.97
2023-01-06T07:29:52.040Z,97.00
2023-01-06T07:32:18.496Z,96.83
2023-01-06T07:34:44.997Z,97.10
2023-01-06T07:37:11.535Z,96.96
2023-01-06T07:39:37.993Z,97.04
2023-01-06T07:42:04.445Z,96.89
2023-01-06T07:44:31.064Z,96.98
2023-01-06T07:46:57.587Z,96.96
2023-01-06T07:49:24.071Z,96.75
2023-01-06T07:51:50.480Z,96.53
2023-01-06T07:54:17.247Z,96.46
2023-01-06T07:56:44.210Z,96.38
2023-01-06T07:59:11.042Z,96.21
2023-01-06T08:01:37.762Z,96.48
2023-01-06T08:04:04.435Z,96.22
2023-01-06T08:06:31.169Z,96.19
2023-01-06T08:08:57.591Z,96.15
2023-01-06T08:11:24.183Z,95.92
2023-01-06T08:13:50.606Z,95.94
2023-01-06T08:16:17.309Z,95.81
2023-01-06T08:18:43.779Z,95.81
2023-01-06T08:21:11.464Z,95.78
2023-01-06T08:23:38.345Z,95.89
2023-01-06T08:26:10.331Z,95.79
2023-01-06T08:28:37.048Z,95.66
2023-01-06T08:31:03.674Z,95.62
2023-01-06T08:33:30.241Z,95.86
2023-01-06T08:36:00.990Z,95.51
2023-01-06T08:38:28.941Z,95.47
2023-01-06T08:40:56.856Z,95.39
2023-01-06T08:43:24.089Z,95.43
2023-01-06T08:45:50.960Z,95.65
2023-01-06T08:48:17.609Z,95.88
2023-01-06T08:50:44.367Z,95.70
2023-01-06T08:53:11.711Z,95.67
2023-01-06T08:55:39.682Z,95.47
2023-01-06T08:58:06.477Z,95.68
2023-01-06T09:00:33.110Z,95.58
2023-01-06T09:02:59.513Z,95.52
2023-01-06T09:05:26.127Z,95.58
2023-01-06T09:07:52.620Z,95.29
2023-01-06T09:10:19.623Z,95.35
2023-01-06T09:12:46.318Z,95.26
2023-01-06T09:15:13.096Z,95.08
2023-01-06T09:17:39.675Z,95.03
2023-01-06T09:20:06.433Z,95.32
2023-01-06T09:22:32.916Z,95.26
2023-01-06T09:24:59.584Z,95.63
2023-01-06T09:27:26.106Z,95.13
2023-01-06T09:29:53.022Z,95.13
2023-01-06T09:32:19.458Z,95.16
2023-01-06T09:34:46.097Z,95.20
2023-01-06T09:37:12.474Z,94.96
2023-01-06T09:39:39.803Z,95.14
2023-01-06T09:42:33.022Z,95.49
2023-01-06T09:45:16.288Z,95.16
2023-01-06T09:48:00.174Z,95.14
2023-01-06T09:50:55.906Z,94.86
2023-01-06T09:53:30.557Z,95.33
2023-01-06T09:56:00.992Z,95.52
2023-01-06T09:58:31.264Z,95.61
2023-01-06T10:01:01.034Z,95.55
2023-01-06T10:03:27.832Z,95.03
2023-01-06T10:06:18.091Z,95.11
2023-01-06T10:09:04.330Z,95.35
2023-01-06T10:12:18.499Z,95.53
2023-01-06T10:15:12.500Z,95.14
2023-01-06T10:17:53.577Z,95.25
2023-01-06T10:21:01.176Z,95.15
2023-01-06T10:23:51.674Z,95.14
2023-01-06T10:26:32.894Z,95.09
2023-01-06T10:29:06.634Z,94.83
2023-01-06T10:31:37.226Z,94.55
2023-01-06T10:34:05.783Z,94.44
2023-01-06T10:36:42.258Z,95.03
2023-01-06T10:39:19.229Z,94.96
2023-01-06T10:42:30.485Z,95.23
2023-01-06T10:44:56.944Z,94.53
2023-01-06T10:47:28.413Z,94.74
2023-01-06T10:49:55.054Z,94.61
2023-01-06T10:52:24.262Z,94.61
2023-01-06T10:54:54.165Z,95.23
2023-01-06T10:57:26.727Z,95.16
2023-01-06T11:00:12.393Z,95.79
2023-01-06T11:02:46.840Z,94.18
2023-01-06T11:05:17.865Z,93.92
2023-01-06T11:07:51.629Z,93.82
2023-01-06T11:10:27.405Z,94.44
2023-01-06T11:12:56.422Z,93.63
2023-01-06T11:15:28.310Z,94.03
2023-01-06T11:17:54.843Z,94.21
2023-01-06T11:20:21.232Z,94.02
2023-01-06T11:22:48.433Z,93.83
2023-01-06T11:25:20.614Z,93.65
2023-01-06T11:27:48.418Z,90.93
2023-01-06T11:30:28.741Z,90.17
2023-01-06T11:32:55.283Z,89.15
2023-01-06T11:35:33.537Z,88.35
2023-01-06T11:38:01.028Z,87.23
2023-01-06T11:40:33.597Z,86.77
2023-01-06T11:43:06.261Z,85.25
2023-01-06T11:45:33.169Z,82.69
2023-01-06T11:48:00.051Z,82.13
2023-01-06T11:50:26.639Z,81.97
2023-01-06T11:53:04.750Z,82.09
2023-01-06T11:55:34.247Z,80.41
2023-01-06T11:58:12.005Z,79.99
2023-01-06T12:00:52.931Z,79.58
2023-01-06T12:03:19.628Z,79.34
2023-01-06T12:06:04.636Z,79.70
2023-01-06T12:08:46.807Z,78.96
2023-01-06T12:11:19.561Z,77.82
2023-01-06T12:14:08.392Z,77.57
2023-01-06T12:16:39.094Z,74.39
2023-01-06T12:19:16.414Z,72.76
2023-01-06T12:21:43.040Z,72.30
2023-01-06T12:24:20.808Z,73.00
2023-01-06T12:26:48.133Z,70.18
2023-01-06T12:29:20.572Z,69.76
2023-01-06T12:32:09.975Z,69.35
2023-01-06T12:34:50.233Z,70.01
2023-01-06T12:37:27.639Z,70.33
2023-01-06T12:40:05.014Z,70.66
2023-01-06T12:43:11.521Z,71.36
2023-01-06T12:45:46.679Z,71.32
2023-01-06T12:48:43.747Z,72.53
2023-01-06T12:51:19.329Z,72.66
2023-01-06T12:53:55.553Z,72.97
2023-01-06T12:56:47.233Z,72.70
2023-01-06T12:59:19.678Z,73.01
2023-01-06T13:01:54.733Z,73.52
2023-01-06T13:04:52.613Z,73.63
2023-01-06T13:07:40.118Z,73.20
2023-01-06T13:10:31.387Z,73.04
2023-01-06T13:13:16.657Z,71.64
2023-01-06T13:15:45.420Z,72.23
2023-01-06T13:18:21.198Z,72.42
2023-01-06T13:20:51.948Z,72.32
2023-01-06T13:23:34.775Z,72.65
2023-01-06T13:26:22.148Z,72.84
2023-01-06T13:29:24.028Z,73.03
2023-01-06T13:32:20.516Z,72.65
2023-01-06T13:35:20.714Z,72.67
2023-01-06T13:38:28.418Z,72.74
2023-01-06T13:40:59.678Z,71.86
2023-01-06T13:43:32.278Z,71.44
2023-01-06T13:46:09.968Z,71.55
2023-01-06T13:48:39.965Z,70.97
2023-01-06T13:51:10.033Z,70.93
2023-01-06T13:53:42.836Z,71.39
2023-01-06T13:56:12.251Z,72.23
2023-01-06T13:58:40.770Z,72.50
2023-01-06T14:01:19.598Z,72.07
2023-01-06T14:03:50.200Z,72.11
2023-01-06T14:06:22.985Z,72.25
2023-01-06T14:08:58.719Z,72.67
2023-01-06T14:11:32.463Z,72.25
2023-01-06T14:14:12.769Z,71.89
2023-01-06T14:16:39.387Z,71.33
2023-01-06T14:19:08.709Z,70.94
2023-01-06T14:21:35.759Z,70.68
2023-01-06T14:24:08.507Z,71.09
2023-01-06T14:26:58.457Z,71.34
2023-01-06T14:29:40.220Z,70.96
2023-01-06T14:32:16.805Z,70.81
2023-01-06T14:34:52.433Z,70.87
2023-01-06T14:37:23.066Z,70.65
2023-01-06T14:39:54.087Z,70.64
2023-01-06T14:42:38.744Z,71.34
2023-01-06T14:45:13.119Z,70.86
2023-01-06T14:47:46.291Z,71.06
2023-01-06T14:50:46.146Z,71.04
2023-01-06T14:53:38.968Z,71.78
2023-01-06T14:56:07.114Z,71.07
2023-01-06T14:58:38.715Z,71.27
2023-01-06T15:01:21.814Z,71.91
2023-01-06T15:03:57.780Z,71.90
2023-01-06T15:06:25.710Z,71.82
2023-01-06T15:08:52.231Z,71.55
2023-01-06T15:11:27.671Z,72.45
2023-01-06T15:13:54.842Z,71.83
2023-01-06T15:16:39.344Z,72.32
2023-01-06T15:19:07.628Z,72.22
2023-01-06T15:21:40.417Z,72.85
2023-01-06T15:24:24.996Z,72.80
2023-01-06T15:26:53.761Z,72.51
2023-01-06T15:29:24.195Z,72.54
2023-01-06T15:31:53.060Z,72.43
2023-01-06T15:34:22.802Z,72.43
2023-01-06T15:36:53.452Z,72.80
2023-01-06T15:39:27.108Z,73.07
2023-01-06T15:41:54.527Z,72.37
2023-01-06T15:44:27.328Z,72.71
2023-01-06T15:47:11.677Z,73.15
2023-01-06T15:49:42.837Z,73.21
2023-01-06T15:52:21.551Z,73.32
2023-01-06T15:54:48.502Z,72.76
2023-01-06T15:57:17.373Z,72.80
2023-01-06T15:59:56.652Z,73.38
2023-01-06T16:02:26.023Z,73.10
2023-01-06T16:04:52.735Z,72.86
2023-01-06T16:07:41.019Z,73.77
2023-01-06T16:10:36.762Z,73.56
2023-01-06T16:13:18.567Z,73.85
2023-01-06T16:15:45.340Z,73.21
2023-01-06T16:18:13.169Z,73.16
2023-01-06T16:20:39.909Z,73.86
2023-01-06T16:23:06.624Z,73.96
2023-01-06T16:25:35.345Z,74.55
2023-01-06T16:28:04.394Z,74.87
2023-01-06T16:30:36.528Z,75.38
2023-01-06T16:33:03.740Z,75.42
2023-01-06T16:35:32.453Z,75.53
2023-01-06T16:37:59.227Z,75.51
2023-01-06T16:40:27.610Z,75.82
2023-01-06T16:43:02.161Z,76.23
2023-01-06T16:45:31.587Z,76.06
2023-01-06T16:47:58.595Z,76.09
2023-01-06T16:50:36.490Z,76.45
2023-01-06T16:53:21.109Z,76.80
2023-01-06T16:55:55.394Z,76.38
2023-01-06T16:58:30.016Z,76.81
2023-01-06T17:01:04.901Z,76.64
2023-01-06T17:03:36.661Z,76.88
2023-01-06T17:06:03.445Z,76.89
2023-01-06T17:08:38.457Z,77.78
2023-01-06T17:11:16.378Z,77.76
2023-01-06T17:13:51.458Z,78.28
2023-01-06T17:16:21.323Z,78.24
2023-01-06T17:18:56.671Z,78.30
2023-01-06T17:21:26.769Z,78.66
2023-01-06T17:23:57.624Z,78.49
2023-01-06T17:26:24.982Z,78.54
2023-01-06T17:28:54.126Z,78.55
2023-01-06T17:31:34.115Z,79.45
2023-01-06T17:34:22.310Z,79.22
2023-01-06T17:36:53.247Z,79.05
2023-01-06T17:39:30.131Z,79.48
2023-01-06T17:42:12.672Z,79.57
2023-01-06T17:44:48.307Z,79.58
2023-01-06T17:47:15.228Z,79.46
2023-01-06T17:49:47.591Z,79.55
2023-01-06T17:52:35.493Z,79.45
2023-01-06T17:55:41.935Z,79.81
2023-01-06T17:58:17.984Z,80.13
2023-01-06T18:00:45.562Z,79.89
2023-01-06T18:03:18.975Z,80.60
2023-01-06T18:05:45.590Z,80.08
2023-01-06T18:08:17.318Z,80.56
2023-01-06T18:11:02.757Z,81.50
2023-01-06T18:13:35.650Z,81.70
2023-01-06T18:16:05.754Z,81.63
2023-01-06T18:18:40.297Z,81.95
2023-01-06T18:21:16.182Z,81.94
2023-01-06T18:23:45.610Z,81.78
2023-01-06T18:26:27.115Z,81.85
2023-01-06T18:29:00.176Z,81.18
2023-01-06T18:31:33.890Z,81.13
2023-01-06T18:34:08.142Z,80.96
2023-01-06T18:36:34.544Z,80.64
2023-01-06T18:39:01.487Z,81.18
2023-01-06T18:41:28.660Z,81.29
2023-01-06T18:43:58.114Z,81.76
2023-01-06T18:46:26.189Z,81.79
2023-01-06T18:48:54.676Z,82.57
2023-01-06T18:51:24.425Z,82.32
2023-01-06T18:53:52.191Z,82.35
2023-01-06T18:56:26.916Z,82.56
2023-01-06T18:58:57.191Z,81.84
2023-01-06T19:01:23.713Z,81.96
2023-01-06T19:04:19.076Z,82.21
2023-01-06T19:06:49.821Z,81.67
2023-01-06T19:09:43.774Z,81.92
2023-01-06T19:12:36.994Z,81.93
2023-01-06T19:15:29.605Z,82.51
2023-01-06T19:17:56.047Z,81.89
2023-01-06T19:20:26.760Z,81.44
2023-01-06T19:22:55.217Z,81.50
2023-01-06T19:25:40.479Z,82.13
2023-01-06T19:28:16.894Z,81.60
2023-01-06T19:30:48.105Z,81.63
2023-01-06T19:34:06.068Z,82.06
2023-01-06T19:36:49.207Z,82.21
2023-01-06T19:39:24.017Z,81.88
2023-01-06T19:41:55.915Z,82.06
2023-01-06T19:44:32.154Z,82.45
2023-01-06T19:47:00.515Z,81.96
2023-01-06T19:49:37.600Z,82.26
2023-01-06T19:52:24.289Z,82.56
2023-01-06T19:54:50.726Z,82.26
2023-01-06T19:57:32.702Z,82.69
2023-01-06T20:00:01.633Z,81.97
2023-01-06T20:02:31.655Z,82.14
2023-01-06T20:04:58.320Z,82.32
2023-01-06T20:07:24.760Z,82.52
2023-01-06T20:09:51.245Z,82.63
2023-01-06T20:12:17.755Z,82.69
2023-01-06T20:14:44.200Z,82.53
2023-01-06T20:17:10.883Z,82.84
2023-01-06T20:19:37.250Z,82.87
2023-01-06T20:22:03.681Z,83.14
2023-01-06T20:24:30.231Z,82.68
2023-01-06T20:26:56.671Z,83.23
2023-01-06T20:29:23.107Z,83.10
2023-01-06T20:31:49.559Z,83.63
2023-01-06T20:34:16.139Z,83.47
2023-01-06T20:36:42.877Z,84.15
2023-01-06T20:39:09.439Z,84.87
2023-01-06T20:41:35.834Z,84.64
2023-01-06T20:44:02.221Z,85.05
2023-01-06T20:46:28.664Z,85.06
2023-01-06T20:48:55.066Z,85.09
2023-01-06T20:51:21.438Z,84.65
2023-01-06T20:53:47.827Z,84.24
2023-01-06T20:56:14.239Z,84.52
2023-01-06T20:58:40.655Z,84.51
2023-01-06T21:01:07.269Z,84.55
2023-01-06T21:03:33.793Z,84.43
2023-01-06T21:06:00.182Z,84.42
2023-01-06T21:08:26.611Z,84.96
2023-01-06T21:10:53.060Z,85.40
2023-01-06T21:13:23.969Z,85.36
2023-01-06T21:15:50.692Z,85.49
2023-01-06T21:18:17.117Z,85.81
2023-01-06T21:20:43.633Z,85.90
2023-01-06T21:23:10.026Z,86.19
2023-01-06T21:25:36.455Z,86.12
2023-01-06T21:28:02.987Z,85.86
2023-01-06T21:30:31.646Z,85.42
2023-01-06T21:32:58.095Z,85.72
2023-01-06T21:35:24.505Z,86.04
2023-01-06T21:37:51.173Z,86.55
2023-01-06T21:40:17.637Z,86.39
2023-01-06T21:43:02.725Z,86.89
2023-01-06T21:45:29.222Z,86.98
2023-01-06T21:47:56.245Z,87.27
2023-01-06T21:50:25.423Z,86.85
2023-01-06T21:52:53.577Z,86.53
2023-01-06T21:55:20.318Z,86.49
2023-01-06T21:57:47.362Z,86.50
2023-01-06T22:00:14.269Z,86.36
2023-01-06T22:02:41.310Z,85.94
2023-01-06T22:05:08.450Z,86.12
2023-01-06T22:07:38.345Z,87.14
2023-01-06T22:10:06.915Z,86.58
2023-01-06T22:12:34.156Z,86.42
2023-01-06T22:15:01.155Z,86.77
2023-01-06T22:17:27.720Z,86.54
2023-01-06T22:19:55.181Z,86.26
2023-01-06T22:22:22.589Z,86.26
2023-01-06T22:24:51.891Z,86.58
2023-01-06T22:27:18.296Z,86.26
2023-01-06T22:29:44.771Z,86.06
2023-01-06T22:32:11.371Z,86.03
2023-01-06T22:34:37.768Z,85.70
2023-01-06T22:37:04.188Z,85.54
2023-01-06T22:39:30.646Z,85.45
2023-01-06T22:41:57.102Z,85.10
2023-01-06T22:44:23.569Z,85.27
2023-01-06T22:46:49.969Z,85.08
2023-01-06T22:49:16.377Z,85.13
2023-01-06T22:51:43.709Z,86.06
2023-01-06T22:54:10.271Z,86.21
2023-01-06T22:56:36.817Z,86.66
2023-01-06T22:59:03.597Z,87.28
2023-01-06T23:01:30.214Z,87.20
2023-01-06T23:03:56.650Z,87.14
2023-01-06T23:06:23.177Z,86.73
2023-01-06T23:08:59.672Z,86.29
2023-01-06T23:11:27.933Z,85.94
2023-01-06T23:13:58.395Z,85.37
2023-01-06T23:16:26.278Z,85.87
2023-01-06T23:18:53.397Z,84.45
2023-01-06T23:21:23.276Z,84.91
2023-01-06T23:23:51.018Z,84.73
2023-01-06T23:26:22.817Z,85.30
2023-01-06T23:28:51.250Z,85.11
2023-01-06T23:31:20.732Z,84.96
2023-01-06T23:33:49.846Z,85.19
2023-01-06T23:36:18.576Z,86.04
2023-01-06T23:38:45.249Z,86.19
2023-01-06T23:41:32.418Z,87.70
2023-01-06T23:44:00.050Z,87.53
2023-01-06T23:46:29.667Z,87.91
2023-01-06T23:48:56.833Z,87.85
2023-01-06T23:51:24.164Z,87.82
2023-01-06T23:53:51.854Z,87.79
2023-01-06T23:56:20.805Z,87.38
2023-01-06T23:58:49.060Z,87.51
